temperature
    1      3.50  2022 11 29 23 43   48.46990  236.68100     5
    3      3.90  2022 11 29 23 43   48.47760  236.58299     1
    4      3.50  2022 11 29 23 43   48.44080  236.66100     1
    5      3.40  2022 11 29 23 43   48.46600  236.66299     1
    6      4.20  2022 11 29 23 43   48.46160  236.59200     1
    7      3.70  2022 11 29 23 43   48.46550  236.67900     1
    9      3.80  2022 11 29 23 43   48.46510  236.70000     1
   14      4.00  2022 11 29 23 43   48.43590  236.68900     1
   15      4.40  2022 11 29 23 43   48.41530  236.65199     1
   18      3.20  2022 11 29 23 43   48.48650  236.67599     1
   19      4.00  2022 11 29 23 43   48.41820  236.68600     1
   20      3.40  2022 11 29 23 43   48.47880  236.63499     1
   22      3.40  2022 11 29 23 43   48.45340  236.64101     1
   25      3.70  2022 11 29 23 43   48.44510  236.67200     1
   26      3.60  2022 11 29 23 43   48.45620  236.66200     1
   34      3.80  2022 11 29 23 43   48.45290  236.52299     3
   39      4.20  2022 11 29 23 43   48.46550  236.49400     3
   40      4.10  2022 11 29 23 43   48.45150  236.49500     3
   42      3.60  2022 11 29 23 43   48.56210  236.53400     2
   55      3.70  2022 11 29 23 43   48.44880  236.51401     3
   57      4.40  2022 11 29 23 43   48.42180  236.50500     3
   71      1.80  2022 11 29 23 43   48.53760  236.49899    11
   73      4.20  2022 11 29 23 43   48.45370  236.57899     1
   74      3.60  2022 11 29 23 43   48.44560  236.63901     1
   75      3.80  2022 11 29 23 43   48.42350  236.65300     1
   77      3.80  2022 11 29 23 43   48.46690  236.60800     1
   79      3.80  2022 11 29 23 43   48.47130  236.69299     1
   82      3.70  2022 11 29 23 43   48.46080  236.60699     1
   89      1.20  2022 11 29 23 43   49.31120  235.67300    21
   93      2.90  2022 11 29 23 43   48.65380  236.37601    14
   99      3.30  2022 11 29 23 43   48.51100  236.53600    11
  101      1.90  2022 11 29 23 43   48.51010  236.47600    11
  104      3.90  2022 11 29 23 43   48.42810  236.47099     3
  115      4.20  2022 11 29 23 43   48.43210  236.59801     5
  122      3.80  2022 11 29 23 43   48.85030  236.49400    40
  123      1.80  2022 11 29 23 43   49.15670  236.03101    23
  128      4.20  2022 11 29 23 43   48.43600  236.53700     3
  132      2.20  2022 11 29 23 43   48.61540  236.36900    14
  134      3.60  2022 11 29 23 43   48.46480  236.62601     5
  143      3.80  2022 11 29 23 43   48.46230  236.69099     5
  162      3.70  2022 11 29 23 43   48.45240  236.67101     5
  163      3.50  2022 11 29 23 43   48.46480  236.68600     5
  169      3.40  2022 11 29 23 43   48.43780  236.46700     5
  177      2.70  2022 11 29 23 43   48.98460  236.17200    20
  190      0.80  2022 11 29 23 43   49.68220  235.00101    30
  197      2.40  2022 11 29 23 43   48.52190  236.58000     5
  200      3.20  2022 11 29 23 43   48.48800  236.67300     5
  205      1.80  2022 11 29 23 43   49.96700  234.78400    35
  207      1.30  2022 11 29 23 43   49.98010  234.75500    35
  210      2.10  2022 11 29 23 43   50.02080  234.75400    35
  211      3.20  2022 11 29 23 43   50.05990  235.01700    35
  215      3.80  2022 11 29 23 43   48.46180  236.59500     5
  216      0.70  2022 11 29 23 43   49.17440  237.15300    80
  217      4.80  2022 11 29 23 43   48.45190  236.70399     5
  227      3.40  2022 11 29 23 43   48.52524  236.61111     5
humidity
    1     90.00  2022 11 29 23 43   48.46990  236.68100     5
    3     91.00  2022 11 29 23 43   48.47760  236.58299     1
    4     87.00  2022 11 29 23 43   48.44080  236.66100     1
    5     89.00  2022 11 29 23 43   48.46600  236.66299     1
    6     93.00  2022 11 29 23 43   48.46160  236.59200     1
    7     94.00  2022 11 29 23 43   48.46550  236.67900     1
    9     89.00  2022 11 29 23 43   48.46510  236.70000     1
   14     89.00  2022 11 29 23 43   48.43590  236.68900     1
   15     92.00  2022 11 29 23 43   48.41530  236.65199     1
   18    100.00  2022 11 29 23 43   48.48650  236.67599     1
   20     88.00  2022 11 29 23 43   48.47880  236.63499     1
   22     91.00  2022 11 29 23 43   48.45340  236.64101     1
   25     92.00  2022 11 29 23 43   48.44510  236.67200     1
   26     95.00  2022 11 29 23 43   48.45620  236.66200     1
   34     87.00  2022 11 29 23 43   48.45290  236.52299     3
   39     91.00  2022 11 29 23 43   48.46550  236.49400     3
   42     96.00  2022 11 29 23 43   48.56210  236.53400     2
   57     93.00  2022 11 29 23 43   48.42180  236.50500     3
   73     99.00  2022 11 29 23 43   48.45370  236.57899     1
   74     91.00  2022 11 29 23 43   48.44560  236.63901     1
   75     93.00  2022 11 29 23 43   48.42350  236.65300     1
   77     83.00  2022 11 29 23 43   48.46690  236.60800     1
   79     93.00  2022 11 29 23 43   48.47130  236.69299     1
   82     89.00  2022 11 29 23 43   48.46080  236.60699     1
   89     82.00  2022 11 29 23 43   49.31120  235.67300    21
   93     87.00  2022 11 29 23 43   48.65380  236.37601    14
   99      1.00  2022 11 29 23 43   48.51100  236.53600    11
  101     95.00  2022 11 29 23 43   48.51010  236.47600    11
  104      0.00  2022 11 29 23 43   48.42810  236.47099     3
  122      0.00  2022 11 29 23 43   48.85030  236.49400    40
  123     91.00  2022 11 29 23 43   49.15670  236.03101    23
  128     94.00  2022 11 29 23 43   48.43600  236.53700     3
  132     99.00  2022 11 29 23 43   48.61540  236.36900    14
  134     92.00  2022 11 29 23 43   48.46480  236.62601     5
  143     90.00  2022 11 29 23 43   48.46230  236.69099     5
  162     93.00  2022 11 29 23 43   48.45240  236.67101     5
  163     93.00  2022 11 29 23 43   48.46480  236.68600     5
  190     98.00  2022 11 29 23 43   49.68220  235.00101    30
  197     97.00  2022 11 29 23 43   48.52190  236.58000     5
  200     95.00  2022 11 29 23 43   48.48800  236.67300     5
  205     85.00  2022 11 29 23 43   49.96700  234.78400    35
  207     80.00  2022 11 29 23 43   49.98010  234.75500    35
  210     87.00  2022 11 29 23 43   50.02080  234.75400    35
  211     90.00  2022 11 29 23 43   50.05990  235.01700    35
  215     91.00  2022 11 29 23 43   48.46180  236.59500     5
  216     96.00  2022 11 29 23 43   49.17440  237.15300    80
  217     92.00  2022 11 29 23 43   48.45190  236.70399     5
  227     93.00  2022 11 29 23 43   48.52524  236.61111     5
wind
    1      4.60  2022 11 29 23 43   48.46990  236.68100     5
    3      1.70  2022 11 29 23 43   48.47760  236.58299     1
    4      0.70  2022 11 29 23 43   48.44080  236.66100     1
    5      0.00  2022 11 29 23 43   48.46600  236.66299     1
    6      0.00  2022 11 29 23 43   48.46160  236.59200     1
    7      0.00  2022 11 29 23 43   48.46550  236.67900     1
    9      0.00  2022 11 29 23 43   48.46510  236.70000     1
   10      4.30  2022 11 29 23 43   48.42530  236.59500     1
   14      0.40  2022 11 29 23 43   48.43590  236.68900     1
   15      2.90  2022 11 29 23 43   48.41530  236.65199     1
   18      5.80  2022 11 29 23 43   48.48650  236.67599     1
   19      4.90  2022 11 29 23 43   48.41820  236.68600     1
   20      0.00  2022 11 29 23 43   48.47880  236.63499     1
   22      0.00  2022 11 29 23 43   48.45340  236.64101     1
   25      6.10  2022 11 29 23 43   48.44510  236.67200     1
   26      0.00  2022 11 29 23 43   48.45620  236.66200     1
   34      1.00  2022 11 29 23 43   48.45290  236.52299     3
   39      0.60  2022 11 29 23 43   48.46550  236.49400     3
   40      1.60  2022 11 29 23 43   48.45150  236.49500     3
   42      0.00  2022 11 29 23 43   48.56210  236.53400     2
   55      0.00  2022 11 29 23 43   48.44880  236.51401     3
   57      0.00  2022 11 29 23 43   48.42180  236.50500     3
   71      0.00  2022 11 29 23 43   48.53760  236.49899    11
   73      4.50  2022 11 29 23 43   48.45370  236.57899     1
   74      3.30  2022 11 29 23 43   48.44560  236.63901     1
   75      4.40  2022 11 29 23 43   48.42350  236.65300     1
   77      4.20  2022 11 29 23 43   48.46690  236.60800     1
   79      5.20  2022 11 29 23 43   48.47130  236.69299     1
   81      3.40  2022 11 29 23 43   48.46970  236.65500     1
   82      4.20  2022 11 29 23 43   48.46080  236.60699     1
   89      0.30  2022 11 29 23 43   49.31120  235.67300    21
   93      0.00  2022 11 29 23 43   48.65380  236.37601    14
   99      0.00  2022 11 29 23 43   48.51100  236.53600    11
  101      0.00  2022 11 29 23 43   48.51010  236.47600    11
  104      0.00  2022 11 29 23 43   48.42810  236.47099     3
  110      0.00  2022 11 29 23 43   49.27380  235.80901    21
  115      3.90  2022 11 29 23 43   48.43210  236.59801     5
  122      0.80  2022 11 29 23 43   48.85030  236.49400    40
  123      2.50  2022 11 29 23 43   49.15670  236.03101    23
  128      0.00  2022 11 29 23 43   48.43600  236.53700     3
  132      0.40  2022 11 29 23 43   48.61540  236.36900    14
  143      5.30  2022 11 29 23 43   48.46230  236.69099     5
  162      3.30  2022 11 29 23 43   48.45240  236.67101     5
  163      4.80  2022 11 29 23 43   48.46480  236.68600     5
  169      0.00  2022 11 29 23 43   48.43780  236.46700     5
  177      4.10  2022 11 29 23 43   48.98460  236.17200    20
  190      0.00  2022 11 29 23 43   49.68220  235.00101    30
  197      1.40  2022 11 29 23 43   48.52190  236.58000     5
  200      1.90  2022 11 29 23 43   48.48800  236.67300     5
  205      0.00  2022 11 29 23 43   49.96700  234.78400    35
  206      0.00  2022 11 29 23 43   49.97270  234.76100    35
  207      0.00  2022 11 29 23 43   49.98010  234.75500    35
  210      1.90  2022 11 29 23 43   50.02080  234.75400    35
  211      0.00  2022 11 29 23 43   50.05990  235.01700    35
  215      0.00  2022 11 29 23 43   48.46180  236.59500     5
  216      1.90  2022 11 29 23 43   49.17440  237.15300    80
  217     11.70  2022 11 29 23 43   48.45190  236.70399     5
  227      3.40  2022 11 29 23 43   48.52524  236.61111     5
winddir
    1    134.00  2022 11 29 23 43   48.46990  236.68100     5
    3    168.00  2022 11 29 23 43   48.47760  236.58299     1
    4    139.00  2022 11 29 23 43   48.44080  236.66100     1
    5    136.00  2022 11 29 23 43   48.46600  236.66299     1
    6     98.00  2022 11 29 23 43   48.46160  236.59200     1
    7    121.00  2022 11 29 23 43   48.46550  236.67900     1
    9      4.00  2022 11 29 23 43   48.46510  236.70000     1
   10     96.00  2022 11 29 23 43   48.42530  236.59500     1
   14    241.00  2022 11 29 23 43   48.43590  236.68900     1
   15     99.00  2022 11 29 23 43   48.41530  236.65199     1
   18    133.00  2022 11 29 23 43   48.48650  236.67599     1
   19    134.00  2022 11 29 23 43   48.41820  236.68600     1
   20    130.00  2022 11 29 23 43   48.47880  236.63499     1
   22    360.00  2022 11 29 23 43   48.45340  236.64101     1
   25    143.00  2022 11 29 23 43   48.44510  236.67200     1
   26    116.00  2022 11 29 23 43   48.45620  236.66200     1
   34    360.00  2022 11 29 23 43   48.45290  236.52299     3
   39     52.00  2022 11 29 23 43   48.46550  236.49400     3
   40    171.00  2022 11 29 23 43   48.45150  236.49500     3
   42    117.00  2022 11 29 23 43   48.56210  236.53400     2
   55    162.00  2022 11 29 23 43   48.44880  236.51401     3
   57    163.00  2022 11 29 23 43   48.42180  236.50500     3
   71    273.00  2022 11 29 23 43   48.53760  236.49899    11
   73    108.00  2022 11 29 23 43   48.45370  236.57899     1
   74    100.00  2022 11 29 23 43   48.44560  236.63901     1
   75    102.00  2022 11 29 23 43   48.42350  236.65300     1
   77    145.00  2022 11 29 23 43   48.46690  236.60800     1
   79    148.00  2022 11 29 23 43   48.47130  236.69299     1
   81    185.00  2022 11 29 23 43   48.46970  236.65500     1
   82    111.00  2022 11 29 23 43   48.46080  236.60699     1
   89    190.00  2022 11 29 23 43   49.31120  235.67300    21
   93    163.00  2022 11 29 23 43   48.65380  236.37601    14
   99     55.00  2022 11 29 23 43   48.51100  236.53600    11
  101    258.00  2022 11 29 23 43   48.51010  236.47600    11
  104    360.00  2022 11 29 23 43   48.42810  236.47099     3
  110    162.00  2022 11 29 23 43   49.27380  235.80901    21
  115    360.00  2022 11 29 23 43   48.43210  236.59801     5
  122    142.00  2022 11 29 23 43   48.85030  236.49400    40
  123    235.00  2022 11 29 23 43   49.15670  236.03101    23
  128    134.00  2022 11 29 23 43   48.43600  236.53700     3
  132    109.00  2022 11 29 23 43   48.61540  236.36900    14
  143    167.00  2022 11 29 23 43   48.46230  236.69099     5
  162    106.00  2022 11 29 23 43   48.45240  236.67101     5
  163    145.00  2022 11 29 23 43   48.46480  236.68600     5
  169    299.00  2022 11 29 23 43   48.43780  236.46700     5
  177    152.00  2022 11 29 23 43   48.98460  236.17200    20
  190    214.00  2022 11 29 23 43   49.68220  235.00101    30
  197    267.00  2022 11 29 23 43   48.52190  236.58000     5
  200     93.00  2022 11 29 23 43   48.48800  236.67300     5
  205    210.00  2022 11 29 23 43   49.96700  234.78400    35
  206    194.00  2022 11 29 23 43   49.97270  234.76100    35
  207    161.00  2022 11 29 23 43   49.98010  234.75500    35
  210      9.00  2022 11 29 23 43   50.02080  234.75400    35
  211    264.00  2022 11 29 23 43   50.05990  235.01700    35
  215    134.00  2022 11 29 23 43   48.46180  236.59500     5
  216    150.00  2022 11 29 23 43   49.17440  237.15300    80
  217    118.00  2022 11 29 23 43   48.45190  236.70399     5
  227    161.00  2022 11 29 23 43   48.52524  236.61111     5
solar
    1      0.00  2022 11 29 23 43   48.46990  236.68100     5
    3      0.00  2022 11 29 23 43   48.47760  236.58299     1
    4      0.00  2022 11 29 23 43   48.44080  236.66100     1
    5      0.00  2022 11 29 23 43   48.46600  236.66299     1
    6      0.00  2022 11 29 23 43   48.46160  236.59200     1
    7      0.00  2022 11 29 23 43   48.46550  236.67900     1
    9      0.00  2022 11 29 23 43   48.46510  236.70000     1
   10      0.00  2022 11 29 23 43   48.42530  236.59500     1
   14      0.00  2022 11 29 23 43   48.43590  236.68900     1
   15      0.00  2022 11 29 23 43   48.41530  236.65199     1
   18      0.00  2022 11 29 23 43   48.48650  236.67599     1
   19      0.00  2022 11 29 23 43   48.41820  236.68600     1
   20      0.00  2022 11 29 23 43   48.47880  236.63499     1
   22      0.00  2022 11 29 23 43   48.45340  236.64101     1
   25      0.00  2022 11 29 23 43   48.44510  236.67200     1
   26      0.00  2022 11 29 23 43   48.45620  236.66200     1
   34      0.00  2022 11 29 23 43   48.45290  236.52299     3
   39      0.00  2022 11 29 23 43   48.46550  236.49400     3
   40      0.00  2022 11 29 23 43   48.45150  236.49500     3
   42      0.00  2022 11 29 23 43   48.56210  236.53400     2
   55      0.00  2022 11 29 23 43   48.44880  236.51401     3
   57      0.00  2022 11 29 23 43   48.42180  236.50500     3
   71      0.00  2022 11 29 23 43   48.53760  236.49899    11
   73      0.00  2022 11 29 23 43   48.45370  236.57899     1
   74      0.00  2022 11 29 23 43   48.44560  236.63901     1
   75      0.00  2022 11 29 23 43   48.42350  236.65300     1
   77      0.00  2022 11 29 23 43   48.46690  236.60800     1
   79      0.00  2022 11 29 23 43   48.47130  236.69299     1
   81      0.00  2022 11 29 23 43   48.46970  236.65500     1
   82      0.00  2022 11 29 23 43   48.46080  236.60699     1
   89      0.00  2022 11 29 23 43   49.31120  235.67300    21
   93      0.00  2022 11 29 23 43   48.65380  236.37601    14
   99      0.00  2022 11 29 23 43   48.51100  236.53600    11
  101      0.00  2022 11 29 23 43   48.51010  236.47600    11
  104      0.00  2022 11 29 23 43   48.42810  236.47099     3
  110      0.00  2022 11 29 23 43   49.27380  235.80901    21
  115      0.00  2022 11 29 23 43   48.43210  236.59801     5
  122      0.00  2022 11 29 23 43   48.85030  236.49400    40
  123      0.00  2022 11 29 23 43   49.15670  236.03101    23
  128      0.00  2022 11 29 23 43   48.43600  236.53700     3
  132      0.00  2022 11 29 23 43   48.61540  236.36900    14
  134      0.00  2022 11 29 23 43   48.46480  236.62601     5
  143      0.00  2022 11 29 23 43   48.46230  236.69099     5
  162      0.00  2022 11 29 23 43   48.45240  236.67101     5
  163      0.00  2022 11 29 23 43   48.46480  236.68600     5
  169      0.00  2022 11 29 23 43   48.43780  236.46700     5
  177      0.00  2022 11 29 23 43   48.98460  236.17200    20
  190      0.00  2022 11 29 23 43   49.68220  235.00101    30
  197      0.00  2022 11 29 23 43   48.52190  236.58000     5
  200      0.00  2022 11 29 23 43   48.48800  236.67300     5
  205      0.00  2022 11 29 23 43   49.96700  234.78400    35
  206      0.00  2022 11 29 23 43   49.97270  234.76100    35
  207      0.00  2022 11 29 23 43   49.98010  234.75500    35
  210      0.00  2022 11 29 23 43   50.02080  234.75400    35
  211      0.00  2022 11 29 23 43   50.05990  235.01700    35
  215      0.00  2022 11 29 23 43   48.46180  236.59500     5
  216      0.00  2022 11 29 23 43   49.17440  237.15300    80
  217      0.00  2022 11 29 23 43   48.45190  236.70399     5
  227      0.00  2022 11 29 23 43   48.52524  236.61111     5
uv
    3      0.00  2022 11 29 23 43   48.47760  236.58299     1
    4      0.00  2022 11 29 23 43   48.44080  236.66100     1
    5      0.00  2022 11 29 23 43   48.46600  236.66299     1
    6      0.00  2022 11 29 23 43   48.46160  236.59200     1
    7      0.00  2022 11 29 23 43   48.46550  236.67900     1
    9      0.00  2022 11 29 23 43   48.46510  236.70000     1
   10      0.00  2022 11 29 23 43   48.42530  236.59500     1
   14      0.00  2022 11 29 23 43   48.43590  236.68900     1
   15      0.00  2022 11 29 23 43   48.41530  236.65199     1
   18      0.00  2022 11 29 23 43   48.48650  236.67599     1
   19      0.00  2022 11 29 23 43   48.41820  236.68600     1
   20      0.00  2022 11 29 23 43   48.47880  236.63499     1
   22      0.00  2022 11 29 23 43   48.45340  236.64101     1
   25      0.00  2022 11 29 23 43   48.44510  236.67200     1
   26      0.00  2022 11 29 23 43   48.45620  236.66200     1
   34      0.00  2022 11 29 23 43   48.45290  236.52299     3
   39      0.00  2022 11 29 23 43   48.46550  236.49400     3
   40      0.00  2022 11 29 23 43   48.45150  236.49500     3
   42      0.00  2022 11 29 23 43   48.56210  236.53400     2
   55      0.00  2022 11 29 23 43   48.44880  236.51401     3
   71      0.00  2022 11 29 23 43   48.53760  236.49899    11
   73      0.00  2022 11 29 23 43   48.45370  236.57899     1
   74      0.00  2022 11 29 23 43   48.44560  236.63901     1
   75      0.00  2022 11 29 23 43   48.42350  236.65300     1
   77      0.00  2022 11 29 23 43   48.46690  236.60800     1
   79      0.00  2022 11 29 23 43   48.47130  236.69299     1
   81      0.00  2022 11 29 23 43   48.46970  236.65500     1
   82      0.00  2022 11 29 23 43   48.46080  236.60699     1
   89      0.00  2022 11 29 23 43   49.31120  235.67300    21
   93      0.00  2022 11 29 23 43   48.65380  236.37601    14
   99      0.00  2022 11 29 23 43   48.51100  236.53600    11
  101      0.00  2022 11 29 23 43   48.51010  236.47600    11
  104      0.00  2022 11 29 23 43   48.42810  236.47099     3
  110      0.00  2022 11 29 23 43   49.27380  235.80901    21
  115      0.00  2022 11 29 23 43   48.43210  236.59801     5
  122      0.00  2022 11 29 23 43   48.85030  236.49400    40
  123      0.00  2022 11 29 23 43   49.15670  236.03101    23
  128      0.00  2022 11 29 23 43   48.43600  236.53700     3
  132      0.00  2022 11 29 23 43   48.61540  236.36900    14
  134      0.00  2022 11 29 23 43   48.46480  236.62601     5
  143      0.00  2022 11 29 23 43   48.46230  236.69099     5
  162      0.00  2022 11 29 23 43   48.45240  236.67101     5
  163      0.00  2022 11 29 23 43   48.46480  236.68600     5
  169      0.00  2022 11 29 23 43   48.43780  236.46700     5
  177      0.00  2022 11 29 23 43   48.98460  236.17200    20
  190      0.00  2022 11 29 23 43   49.68220  235.00101    30
  197      0.00  2022 11 29 23 43   48.52190  236.58000     5
  200      0.00  2022 11 29 23 43   48.48800  236.67300     5
  205      0.00  2022 11 29 23 43   49.96700  234.78400    35
  206      0.00  2022 11 29 23 43   49.97270  234.76100    35
  207      0.00  2022 11 29 23 43   49.98010  234.75500    35
  210      0.00  2022 11 29 23 43   50.02080  234.75400    35
  211      0.00  2022 11 29 23 43   50.05990  235.01700    35
  215      0.00  2022 11 29 23 43   48.46180  236.59500     5
  217      0.00  2022 11 29 23 43   48.45190  236.70399     5
  227      0.00  2022 11 29 23 43   48.52524  236.61111     5
raintotal
    1      3.30  2022 11 29 23 43   48.46990  236.68100     5
    3      6.60  2022 11 29 23 43   48.47760  236.58299     1
    4      1.50  2022 11 29 23 43   48.44080  236.66100     1
    5      3.30  2022 11 29 23 43   48.46600  236.66299     1
    6      6.10  2022 11 29 23 43   48.46160  236.59200     1
    7      3.80  2022 11 29 23 43   48.46550  236.67900     1
    9      3.30  2022 11 29 23 43   48.46510  236.70000     1
   10      4.80  2022 11 29 23 43   48.42530  236.59500     1
   14      2.50  2022 11 29 23 43   48.43590  236.68900     1
   15      4.10  2022 11 29 23 43   48.41530  236.65199     1
   16      0.00  2022 11 29 23 43   48.45190  236.60699     1
   18      4.30  2022 11 29 23 43   48.48650  236.67599     1
   19      2.30  2022 11 29 23 43   48.41820  236.68600     1
   20      3.80  2022 11 29 23 43   48.47880  236.63499     1
   22      4.30  2022 11 29 23 43   48.45340  236.64101     1
   25      3.60  2022 11 29 23 43   48.44510  236.67200     1
   26      0.00  2022 11 29 23 43   48.45620  236.66200     1
   29      0.00  2022 11 29 23 43   48.43290  236.64900     1
   34      8.10  2022 11 29 23 43   48.45290  236.52299     3
   39     10.40  2022 11 29 23 43   48.46550  236.49400     3
   40      7.10  2022 11 29 23 43   48.45150  236.49500     3
   42     18.30  2022 11 29 23 43   48.56210  236.53400     2
   55      9.60  2022 11 29 23 43   48.44880  236.51401     3
   62      0.00  2022 11 29 23 43   48.68040  236.54300     4
   68      0.00  2022 11 29 23 43   48.56970  236.54700     4
   71     13.70  2022 11 29 23 43   48.53760  236.49899    11
   73      7.60  2022 11 29 23 43   48.45370  236.57899     1
   74      7.10  2022 11 29 23 43   48.44560  236.63901     1
   75      2.80  2022 11 29 23 43   48.42350  236.65300     1
   77      7.10  2022 11 29 23 43   48.46690  236.60800     1
   79      4.30  2022 11 29 23 43   48.47130  236.69299     1
   80      0.00  2022 11 29 23 43   48.48210  236.67000     1
   81      0.00  2022 11 29 23 43   48.46970  236.65500     1
   82      7.60  2022 11 29 23 43   48.46080  236.60699     1
   85      0.00  2022 11 29 23 43   48.82900  235.94800    10
   89      0.00  2022 11 29 23 43   49.31120  235.67300    21
   93      5.10  2022 11 29 23 43   48.65380  236.37601    14
   99      9.60  2022 11 29 23 43   48.51100  236.53600    11
  100      0.00  2022 11 29 23 43   48.48110  236.48700    11
  101     12.20  2022 11 29 23 43   48.51010  236.47600    11
  104     10.20  2022 11 29 23 43   48.42810  236.47099     3
  110      0.00  2022 11 29 23 43   49.27380  235.80901    21
  115      5.60  2022 11 29 23 43   48.43210  236.59801     5
  120      0.00  2022 11 29 23 43   48.77670  236.55299    40
  122      4.60  2022 11 29 23 43   48.85030  236.49400    40
  123      0.20  2022 11 29 23 43   49.15670  236.03101    23
  128      6.10  2022 11 29 23 43   48.43600  236.53700     3
  132      0.00  2022 11 29 23 43   48.61540  236.36900    14
  133      0.00  2022 11 29 23 43   48.65230  236.34900    10
  134      5.30  2022 11 29 23 43   48.46480  236.62601     5
  143      2.00  2022 11 29 23 43   48.46230  236.69099     5
  160      0.00  2022 11 29 23 43   48.65680  236.35699    14
  162     10.90  2022 11 29 23 43   48.45240  236.67101     5
  163      3.60  2022 11 29 23 43   48.46480  236.68600     5
  169     13.50  2022 11 29 23 43   48.43780  236.46700     5
  177      4.80  2022 11 29 23 43   48.98460  236.17200    20
  190      2.30  2022 11 29 23 43   49.68220  235.00101    30
  191      0.00  2022 11 29 23 43   49.62120  234.96700    30
  197      8.00  2022 11 29 23 43   48.52190  236.58000     5
  200      4.40  2022 11 29 23 43   48.48800  236.67300     5
  205      0.00  2022 11 29 23 43   49.96700  234.78400    35
  206      4.30  2022 11 29 23 43   49.97270  234.76100    35
  207      0.00  2022 11 29 23 43   49.98010  234.75500    35
  210      0.00  2022 11 29 23 43   50.02080  234.75400    35
  211      6.40  2022 11 29 23 43   50.05990  235.01700    35
  212      0.00  2022 11 29 23 43   50.37740  234.04201    35
  215      2.30  2022 11 29 23 43   48.46180  236.59500     5
  216      0.00  2022 11 29 23 43   49.17440  237.15300    80
  217      2.30  2022 11 29 23 43   48.45190  236.70399     5
  218      0.00  2022 11 29 23 43   49.32200  235.65700    21
  227     20.30  2022 11 29 23 43   48.52524  236.61111     5
  228      0.00  2022 11 29 23 43   48.43951  236.62003     5
Error 1055 : Expression #1 of SELECT list is not in GROUP BY clause and contains nonaggregated column 'meteo.sdata.timekey' which is not functionally dependent on columns in GROUP BY clause; this is incompatible with sql_mode=only_full_group_by
NumberStation Name